sensor_id;sensor_type;location;lat;lon;timestamp;P1;durP1;ratioP1;P2;durP2;ratioP2
52786;SDS011;38661;53.152;5.846;2023-09-08T00:02:01;11.05;;;9.75;;
52786;SDS011;38661;53.152;5.846;2023-09-08T00:04:26;10.52;;;9.52;;
52786;SDS011;38661;53.152;5.846;2023-09-08T00:06:52;13.00;;;9.85;;
52786;SDS011;38661;53.152;5.846;2023-09-08T00:09:18;11.05;;;9.93;;
52786;SDS011;38661;53.152;5.846;2023-09-08T00:11:43;11.20;;;10.05;;
52786;SDS011;38661;53.152;5.846;2023-09-08T00:14:09;12.98;;;10.73;;
52786;SDS011;38661;53.152;5.846;2023-09-08T00:16:35;10.73;;;9.70;;
52786;SDS011;38661;53.152;5.846;2023-09-08T00:19:02;11.85;;;10.65;;
52786;SDS011;38661;53.152;5.846;2023-09-08T00:21:28;12.05;;;9.77;;
52786;SDS011;38661;53.152;5.846;2023-09-08T00:23:53;11.98;;;10.68;;
52786;SDS011;38661;53.152;5.846;2023-09-08T00:26:19;10.73;;;9.82;;
52786;SDS011;38661;53.152;5.846;2023-09-08T00:28:46;11.90;;;10.43;;
52786;SDS011;38661;53.152;5.846;2023-09-08T00:31:12;12.43;;;10.00;;
52786;SDS011;38661;53.152;5.846;2023-09-08T00:33:38;10.90;;;9.90;;
52786;SDS011;38661;53.152;5.846;2023-09-08T00:36:04;12.90;;;10.73;;
52786;SDS011;38661;53.152;5.846;2023-09-08T00:38:30;13.02;;;10.48;;
52786;SDS011;38661;53.152;5.846;2023-09-08T00:40:55;11.70;;;10.32;;
52786;SDS011;38661;53.152;5.846;2023-09-08T00:43:21;10.18;;;9.18;;
52786;SDS011;38661;53.152;5.846;2023-09-08T00:45:47;11.98;;;10.75;;
52786;SDS011;38661;53.152;5.846;2023-09-08T00:48:13;10.73;;;9.63;;
52786;SDS011;38661;53.152;5.846;2023-09-08T00:50:39;11.27;;;10.10;;
52786;SDS011;38661;53.152;5.846;2023-09-08T00:53:05;11.73;;;10.50;;
52786;SDS011;38661;53.152;5.846;2023-09-08T00:55:32;11.95;;;10.82;;
52786;SDS011;38661;53.152;5.846;2023-09-08T00:57:59;11.40;;;10.20;;
52786;SDS011;38661;53.152;5.846;2023-09-08T01:00:25;11.10;;;10.10;;
52786;SDS011;38661;53.152;5.846;2023-09-08T01:02:51;11.23;;;10.02;;
52786;SDS011;38661;53.152;5.846;2023-09-08T01:05:17;14.60;;;10.07;;
52786;SDS011;38661;53.152;5.846;2023-09-08T01:07:44;12.60;;;11.00;;
52786;SDS011;38661;53.152;5.846;2023-09-08T01:10:10;11.57;;;10.57;;
52786;SDS011;38661;53.152;5.846;2023-09-08T01:12:36;11.95;;;10.43;;
52786;SDS011;38661;53.152;5.846;2023-09-08T01:15:02;11.90;;;10.70;;
52786;SDS011;38661;53.152;5.846;2023-09-08T01:17:32;11.95;;;10.75;;
52786;SDS011;38661;53.152;5.846;2023-09-08T01:20:00;11.38;;;10.30;;
52786;SDS011;38661;53.152;5.846;2023-09-08T01:27:52;13.07;;;11.60;;
52786;SDS011;38661;53.152;5.846;2023-09-08T01:30:19;14.07;;;11.10;;
52786;SDS011;38661;53.152;5.846;2023-09-08T01:32:46;11.60;;;10.48;;
52786;SDS011;38661;53.152;5.846;2023-09-08T01:35:13;15.20;;;11.32;;
52786;SDS011;38661;53.152;5.846;2023-09-08T01:37:39;13.18;;;11.80;;
52786;SDS011;38661;53.152;5.846;2023-09-08T01:40:07;12.27;;;11.00;;
52786;SDS011;38661;53.152;5.846;2023-09-08T01:42:33;12.70;;;10.90;;
52786;SDS011;38661;53.152;5.846;2023-09-08T01:44:59;12.25;;;11.07;;
52786;SDS011;38661;53.152;5.846;2023-09-08T01:47:25;12.18;;;10.98;;
52786;SDS011;38661;53.152;5.846;2023-09-08T01:49:51;12.70;;;11.40;;
52786;SDS011;38661;53.152;5.846;2023-09-08T01:52:16;12.40;;;11.20;;
52786;SDS011;38661;53.152;5.846;2023-09-08T01:54:42;13.52;;;12.23;;
52786;SDS011;38661;53.152;5.846;2023-09-08T01:57:08;14.27;;;11.85;;
52786;SDS011;38661;53.152;5.846;2023-09-08T01:59:33;12.57;;;11.27;;
52786;SDS011;38661;53.152;5.846;2023-09-08T02:01:59;13.45;;;12.05;;
52786;SDS011;38661;53.152;5.846;2023-09-08T02:04:25;12.45;;;11.15;;
52786;SDS011;38661;53.152;5.846;2023-09-08T02:06:51;12.60;;;11.38;;
52786;SDS011;38661;53.152;5.846;2023-09-08T02:09:16;15.60;;;11.70;;
52786;SDS011;38661;53.152;5.846;2023-09-08T02:11:42;14.05;;;11.88;;
52786;SDS011;38661;53.152;5.846;2023-09-08T02:14:08;15.38;;;12.50;;
52786;SDS011;38661;53.152;5.846;2023-09-08T02:16:34;13.30;;;12.00;;
52786;SDS011;38661;53.152;5.846;2023-09-08T02:18:59;14.35;;;12.57;;
52786;SDS011;38661;53.152;5.846;2023-09-08T02:21:25;13.57;;;12.25;;
52786;SDS011;38661;53.152;5.846;2023-09-08T02:23:51;13.77;;;12.32;;
52786;SDS011;38661;53.152;5.846;2023-09-08T02:26:16;14.70;;;11.30;;
52786;SDS011;38661;53.152;5.846;2023-09-08T02:28:42;14.43;;;11.80;;
52786;SDS011;38661;53.152;5.846;2023-09-08T02:31:08;12.88;;;11.63;;
52786;SDS011;38661;53.152;5.846;2023-09-08T02:33:34;13.57;;;12.18;;
52786;SDS011;38661;53.152;5.846;2023-09-08T02:36:06;13.45;;;12.15;;
52786;SDS011;38661;53.152;5.846;2023-09-08T02:38:32;16.15;;;12.40;;
52786;SDS011;38661;53.152;5.846;2023-09-08T02:40:58;15.70;;;12.73;;
52786;SDS011;38661;53.152;5.846;2023-09-08T02:43:24;14.25;;;12.40;;
52786;SDS011;38661;53.152;5.846;2023-09-08T02:45:49;14.35;;;12.85;;
52786;SDS011;38661;53.152;5.846;2023-09-08T02:48:15;13.68;;;12.25;;
52786;SDS011;38661;53.152;5.846;2023-09-08T02:50:41;13.27;;;11.98;;
52786;SDS011;38661;53.152;5.846;2023-09-08T02:53:08;14.48;;;12.70;;
52786;SDS011;38661;53.152;5.846;2023-09-08T02:55:34;14.15;;;12.73;;
52786;SDS011;38661;53.152;5.846;2023-09-08T02:58:00;15.15;;;13.55;;
52786;SDS011;38661;53.152;5.846;2023-09-08T03:00:26;14.40;;;12.90;;
52786;SDS011;38661;53.152;5.846;2023-09-08T03:02:52;14.77;;;13.30;;
52786;SDS011;38661;53.152;5.846;2023-09-08T03:05:18;14.73;;;12.30;;
52786;SDS011;38661;53.152;5.846;2023-09-08T03:07:43;14.95;;;12.63;;
52786;SDS011;38661;53.152;5.846;2023-09-08T03:10:13;16.88;;;14.40;;
52786;SDS011;38661;53.152;5.846;2023-09-08T03:12:39;15.00;;;13.50;;
52786;SDS011;38661;53.152;5.846;2023-09-08T03:15:04;13.00;;;11.80;;
52786;SDS011;38661;53.152;5.846;2023-09-08T03:17:31;15.30;;;13.65;;
52786;SDS011;38661;53.152;5.846;2023-09-08T03:19:56;16.05;;;13.68;;
52786;SDS011;38661;53.152;5.846;2023-09-08T03:22:22;15.35;;;13.75;;
52786;SDS011;38661;53.152;5.846;2023-09-08T03:24:49;14.57;;;13.10;;
52786;SDS011;38661;53.152;5.846;2023-09-08T03:27:15;14.20;;;12.65;;
52786;SDS011;38661;53.152;5.846;2023-09-08T03:29:41;16.65;;;14.38;;
52786;SDS011;38661;53.152;5.846;2023-09-08T03:32:07;15.30;;;13.80;;
52786;SDS011;38661;53.152;5.846;2023-09-08T03:34:32;15.75;;;14.25;;
52786;SDS011;38661;53.152;5.846;2023-09-08T03:36:59;14.52;;;13.15;;
52786;SDS011;38661;53.152;5.846;2023-09-08T03:39:24;16.88;;;12.50;;
52786;SDS011;38661;53.152;5.846;2023-09-08T03:41:50;15.10;;;13.70;;
52786;SDS011;38661;53.152;5.846;2023-09-08T03:44:16;15.93;;;14.18;;
52786;SDS011;38661;53.152;5.846;2023-09-08T03:46:41;14.95;;;13.55;;
52786;SDS011;38661;53.152;5.846;2023-09-08T03:49:07;15.98;;;14.23;;
52786;SDS011;38661;53.152;5.846;2023-09-08T03:51:33;14.80;;;13.40;;
52786;SDS011;38661;53.152;5.846;2023-09-08T03:53:59;17.33;;;13.35;;
52786;SDS011;38661;53.152;5.846;2023-09-08T03:56:25;14.70;;;13.27;;
52786;SDS011;38661;53.152;5.846;2023-09-08T03:58:51;14.20;;;12.80;;
52786;SDS011;38661;53.152;5.846;2023-09-08T04:01:16;14.98;;;13.57;;
52786;SDS011;38661;53.152;5.846;2023-09-08T04:03:42;15.40;;;13.35;;
52786;SDS011;38661;53.152;5.846;2023-09-08T04:06:08;15.63;;;13.75;;
52786;SDS011;38661;53.152;5.846;2023-09-08T04:08:34;14.25;;;12.73;;
52786;SDS011;38661;53.152;5.846;2023-09-08T04:11:00;15.48;;;13.98;;
52786;SDS011;38661;53.152;5.846;2023-09-08T04:13:26;14.45;;;12.95;;
52786;SDS011;38661;53.152;5.846;2023-09-08T04:15:51;16.67;;;15.07;;
52786;SDS011;38661;53.152;5.846;2023-09-08T04:18:17;14.57;;;13.10;;
52786;SDS011;38661;53.152;5.846;2023-09-08T04:20:43;18.35;;;13.88;;
52786;SDS011;38661;53.152;5.846;2023-09-08T04:23:08;15.38;;;13.63;;
52786;SDS011;38661;53.152;5.846;2023-09-08T04:25:34;15.73;;;14.13;;
52786;SDS011;38661;53.152;5.846;2023-09-08T04:28:01;15.75;;;14.30;;
52786;SDS011;38661;53.152;5.846;2023-09-08T04:30:27;17.92;;;14.77;;
52786;SDS011;38661;53.152;5.846;2023-09-08T04:32:53;17.00;;;15.30;;
52786;SDS011;38661;53.152;5.846;2023-09-08T04:35:18;16.08;;;14.40;;
52786;SDS011;38661;53.152;5.846;2023-09-08T04:37:44;16.90;;;15.15;;
52786;SDS011;38661;53.152;5.846;2023-09-08T04:40:10;15.02;;;13.68;;
52786;SDS011;38661;53.152;5.846;2023-09-08T04:42:36;16.05;;;14.45;;
52786;SDS011;38661;53.152;5.846;2023-09-08T04:45:01;16.17;;;14.48;;
52786;SDS011;38661;53.152;5.846;2023-09-08T04:47:27;17.35;;;14.90;;
52786;SDS011;38661;53.152;5.846;2023-09-08T04:49:53;16.95;;;15.07;;
52786;SDS011;38661;53.152;5.846;2023-09-08T04:52:18;19.15;;;16.23;;
52786;SDS011;38661;53.152;5.846;2023-09-08T04:54:44;18.15;;;16.38;;
52786;SDS011;38661;53.152;5.846;2023-09-08T04:57:10;18.35;;;15.73;;
52786;SDS011;38661;53.152;5.846;2023-09-08T04:59:36;17.65;;;15.80;;
52786;SDS011;38661;53.152;5.846;2023-09-08T05:02:04;18.67;;;16.90;;
52786;SDS011;38661;53.152;5.846;2023-09-08T05:04:29;20.10;;;17.40;;
52786;SDS011;38661;53.152;5.846;2023-09-08T05:06:55;17.20;;;15.50;;
52786;SDS011;38661;53.152;5.846;2023-09-08T05:09:21;23.42;;;16.17;;
52786;SDS011;38661;53.152;5.846;2023-09-08T05:11:46;18.60;;;15.82;;
52786;SDS011;38661;53.152;5.846;2023-09-08T05:14:12;17.63;;;15.55;;
52786;SDS011;38661;53.152;5.846;2023-09-08T05:16:38;17.90;;;16.10;;
52786;SDS011;38661;53.152;5.846;2023-09-08T05:19:15;19.55;;;16.13;;
52786;SDS011;38661;53.152;5.846;2023-09-08T05:21:40;16.50;;;14.82;;
52786;SDS011;38661;53.152;5.846;2023-09-08T05:24:08;18.45;;;16.52;;
52786;SDS011;38661;53.152;5.846;2023-09-08T05:26:36;15.65;;;14.15;;
52786;SDS011;38661;53.152;5.846;2023-09-08T05:29:03;15.85;;;14.25;;
52786;SDS011;38661;53.152;5.846;2023-09-08T05:31:29;16.65;;;14.98;;
52786;SDS011;38661;53.152;5.846;2023-09-08T05:33:55;17.58;;;15.77;;
52786;SDS011;38661;53.152;5.846;2023-09-08T05:36:20;15.40;;;13.07;;
52786;SDS011;38661;53.152;5.846;2023-09-08T05:38:46;11.65;;;10.18;;
52786;SDS011;38661;53.152;5.846;2023-09-08T05:41:12;17.00;;;15.40;;
52786;SDS011;38661;53.152;5.846;2023-09-08T05:43:37;16.85;;;15.18;;
52786;SDS011;38661;53.152;5.846;2023-09-08T05:46:03;16.90;;;14.18;;
52786;SDS011;38661;53.152;5.846;2023-09-08T05:48:29;16.75;;;15.00;;
52786;SDS011;38661;53.152;5.846;2023-09-08T05:50:55;16.77;;;15.05;;
52786;SDS011;38661;53.152;5.846;2023-09-08T05:53:20;16.70;;;14.98;;
52786;SDS011;38661;53.152;5.846;2023-09-08T05:55:46;17.42;;;15.63;;
52786;SDS011;38661;53.152;5.846;2023-09-08T05:58:12;18.75;;;16.23;;
52786;SDS011;38661;53.152;5.846;2023-09-08T06:00:38;18.15;;;16.25;;
52786;SDS011;38661;53.152;5.846;2023-09-08T06:03:03;17.17;;;15.52;;
52786;SDS011;38661;53.152;5.846;2023-09-08T06:05:30;22.83;;;16.58;;
52786;SDS011;38661;53.152;5.846;2023-09-08T06:07:56;18.63;;;16.00;;
52786;SDS011;38661;53.152;5.846;2023-09-08T06:10:21;19.67;;;16.70;;
52786;SDS011;38661;53.152;5.846;2023-09-08T06:12:47;24.27;;;16.00;;
52786;SDS011;38661;53.152;5.846;2023-09-08T06:15:16;17.33;;;15.63;;
52786;SDS011;38661;53.152;5.846;2023-09-08T06:17:42;18.00;;;16.20;;
52786;SDS011;38661;53.152;5.846;2023-09-08T06:20:08;17.85;;;16.05;;
52786;SDS011;38661;53.152;5.846;2023-09-08T06:22:34;18.23;;;16.27;;
52786;SDS011;38661;53.152;5.846;2023-09-08T06:25:00;18.20;;;16.27;;
52786;SDS011;38661;53.152;5.846;2023-09-08T06:27:26;17.23;;;15.43;;
52786;SDS011;38661;53.152;5.846;2023-09-08T06:29:52;17.08;;;15.30;;
52786;SDS011;38661;53.152;5.846;2023-09-08T06:32:17;18.27;;;16.20;;
52786;SDS011;38661;53.152;5.846;2023-09-08T06:34:43;17.77;;;15.68;;
52786;SDS011;38661;53.152;5.846;2023-09-08T06:37:10;17.38;;;15.65;;
52786;SDS011;38661;53.152;5.846;2023-09-08T06:39:35;20.45;;;16.33;;
52786;SDS011;38661;53.152;5.846;2023-09-08T06:42:01;17.38;;;15.82;;
52786;SDS011;38661;53.152;5.846;2023-09-08T06:44:27;20.67;;;16.35;;
52786;SDS011;38661;53.152;5.846;2023-09-08T06:46:53;17.65;;;15.82;;
52786;SDS011;38661;53.152;5.846;2023-09-08T06:49:18;18.02;;;16.23;;
52786;SDS011;38661;53.152;5.846;2023-09-08T06:51:44;16.85;;;15.30;;
52786;SDS011;38661;53.152;5.846;2023-09-08T06:54:12;17.98;;;16.08;;
52786;SDS011;38661;53.152;5.846;2023-09-08T06:56:38;18.65;;;15.65;;
52786;SDS011;38661;53.152;5.846;2023-09-08T06:59:03;18.83;;;16.83;;
52786;SDS011;38661;53.152;5.846;2023-09-08T07:01:29;15.95;;;14.32;;
52786;SDS011;38661;53.152;5.846;2023-09-08T07:03:55;18.33;;;15.80;;
52786;SDS011;38661;53.152;5.846;2023-09-08T07:06:21;16.67;;;14.93;;
52786;SDS011;38661;53.152;5.846;2023-09-08T07:08:47;18.17;;;15.60;;
52786;SDS011;38661;53.152;5.846;2023-09-08T07:11:15;18.13;;;15.82;;
52786;SDS011;38661;53.152;5.846;2023-09-08T07:13:41;23.45;;;16.20;;
52786;SDS011;38661;53.152;5.846;2023-09-08T07:16:07;16.55;;;14.93;;
52786;SDS011;38661;53.152;5.846;2023-09-08T07:18:32;17.40;;;15.68;;
52786;SDS011;38661;53.152;5.846;2023-09-08T07:21:01;14.85;;;13.30;;
52786;SDS011;38661;53.152;5.846;2023-09-08T07:23:27;16.80;;;15.10;;
52786;SDS011;38661;53.152;5.846;2023-09-08T07:25:53;15.75;;;14.13;;
52786;SDS011;38661;53.152;5.846;2023-09-08T07:28:19;17.33;;;14.80;;
52786;SDS011;38661;53.152;5.846;2023-09-08T07:30:44;18.30;;;15.48;;
52786;SDS011;38661;53.152;5.846;2023-09-08T07:33:10;16.20;;;14.48;;
52786;SDS011;38661;53.152;5.846;2023-09-08T07:35:36;17.60;;;14.20;;
52786;SDS011;38661;53.152;5.846;2023-09-08T07:38:03;15.15;;;13.55;;
52786;SDS011;38661;53.152;5.846;2023-09-08T07:40:29;16.50;;;13.48;;
52786;SDS011;38661;53.152;5.846;2023-09-08T07:42:56;17.35;;;15.20;;
52786;SDS011;38661;53.152;5.846;2023-09-08T07:45:22;16.42;;;14.75;;
52786;SDS011;38661;53.152;5.846;2023-09-08T07:47:48;15.13;;;13.48;;
52786;SDS011;38661;53.152;5.846;2023-09-08T07:50:24;14.57;;;13.23;;
52786;SDS011;38661;53.152;5.846;2023-09-08T07:52:51;15.40;;;13.88;;
52786;SDS011;38661;53.152;5.846;2023-09-08T07:55:19;15.40;;;13.90;;
52786;SDS011;38661;53.152;5.846;2023-09-08T07:57:48;15.32;;;13.57;;
52786;SDS011;38661;53.152;5.846;2023-09-08T08:00:15;15.60;;;14.10;;
52786;SDS011;38661;53.152;5.846;2023-09-08T08:02:44;14.90;;;13.45;;
52786;SDS011;38661;53.152;5.846;2023-09-08T08:05:12;15.32;;;13.82;;
52786;SDS011;38661;53.152;5.846;2023-09-08T08:07:38;15.70;;;14.05;;
52786;SDS011;38661;53.152;5.846;2023-09-08T08:10:05;14.23;;;12.20;;
52786;SDS011;38661;53.152;5.846;2023-09-08T08:12:31;15.85;;;14.15;;
52786;SDS011;38661;53.152;5.846;2023-09-08T08:14:57;15.93;;;13.95;;
52786;SDS011;38661;53.152;5.846;2023-09-08T08:17:24;14.18;;;12.77;;
52786;SDS011;38661;53.152;5.846;2023-09-08T08:19:51;15.02;;;13.50;;
52786;SDS011;38661;53.152;5.846;2023-09-08T08:22:17;14.63;;;13.02;;
52786;SDS011;38661;53.152;5.846;2023-09-08T08:24:43;14.93;;;13.48;;
52786;SDS011;38661;53.152;5.846;2023-09-08T08:27:09;14.82;;;13.32;;
52786;SDS011;38661;53.152;5.846;2023-09-08T08:29:35;14.13;;;12.55;;
52786;SDS011;38661;53.152;5.846;2023-09-08T08:32:00;14.68;;;12.00;;
52786;SDS011;38661;53.152;5.846;2023-09-08T08:34:26;14.07;;;12.68;;
52786;SDS011;38661;53.152;5.846;2023-09-08T08:36:52;14.70;;;12.95;;
52786;SDS011;38661;53.152;5.846;2023-09-08T08:39:18;15.13;;;13.38;;
52786;SDS011;38661;53.152;5.846;2023-09-08T08:41:43;14.30;;;12.57;;
52786;SDS011;38661;53.152;5.846;2023-09-08T08:44:09;16.23;;;12.63;;
52786;SDS011;38661;53.152;5.846;2023-09-08T08:46:36;18.42;;;12.35;;
52786;SDS011;38661;53.152;5.846;2023-09-08T08:49:03;15.23;;;13.60;;
52786;SDS011;38661;53.152;5.846;2023-09-08T08:51:33;13.93;;;12.52;;
52786;SDS011;38661;53.152;5.846;2023-09-08T08:54:00;13.27;;;11.88;;
52786;SDS011;38661;53.152;5.846;2023-09-08T08:56:29;16.35;;;13.38;;
52786;SDS011;38661;53.152;5.846;2023-09-08T08:59:00;15.45;;;13.27;;
52786;SDS011;38661;53.152;5.846;2023-09-08T09:01:26;14.30;;;12.73;;
52786;SDS011;38661;53.152;5.846;2023-09-08T09:03:54;14.20;;;12.43;;
52786;SDS011;38661;53.152;5.846;2023-09-08T09:06:20;14.38;;;12.30;;
52786;SDS011;38661;53.152;5.846;2023-09-08T09:08:46;14.77;;;11.57;;
52786;SDS011;38661;53.152;5.846;2023-09-08T09:11:12;16.95;;;12.93;;
52786;SDS011;38661;53.152;5.846;2023-09-08T09:13:38;16.40;;;12.00;;
52786;SDS011;38661;53.152;5.846;2023-09-08T09:16:05;12.50;;;11.25;;
52786;SDS011;38661;53.152;5.846;2023-09-08T09:18:45;14.40;;;11.82;;
52786;SDS011;38661;53.152;5.846;2023-09-08T09:21:19;15.25;;;11.05;;
52786;SDS011;38661;53.152;5.846;2023-09-08T09:23:45;15.30;;;10.77;;
52786;SDS011;38661;53.152;5.846;2023-09-08T09:26:11;16.65;;;12.10;;
52786;SDS011;38661;53.152;5.846;2023-09-08T09:28:49;12.45;;;11.25;;
52786;SDS011;38661;53.152;5.846;2023-09-08T09:31:17;12.27;;;10.73;;
52786;SDS011;38661;53.152;5.846;2023-09-08T09:34:11;12.45;;;11.13;;
52786;SDS011;38661;53.152;5.846;2023-09-08T09:36:39;12.25;;;10.93;;
52786;SDS011;38661;53.152;5.846;2023-09-08T09:39:07;13.98;;;11.75;;
52786;SDS011;38661;53.152;5.846;2023-09-08T09:41:33;11.35;;;10.18;;
52786;SDS011;38661;53.152;5.846;2023-09-08T09:43:59;13.05;;;11.27;;
52786;SDS011;38661;53.152;5.846;2023-09-08T09:46:27;14.60;;;11.32;;
52786;SDS011;38661;53.152;5.846;2023-09-08T09:48:56;12.82;;;11.52;;
52786;SDS011;38661;53.152;5.846;2023-09-08T09:51:23;12.80;;;11.35;;
52786;SDS011;38661;53.152;5.846;2023-09-08T09:53:49;11.93;;;10.73;;
52786;SDS011;38661;53.152;5.846;2023-09-08T09:56:16;12.80;;;10.98;;
52786;SDS011;38661;53.152;5.846;2023-09-08T09:58:43;12.00;;;10.75;;
52786;SDS011;38661;53.152;5.846;2023-09-08T10:01:10;11.40;;;10.20;;
52786;SDS011;38661;53.152;5.846;2023-09-08T10:03:37;11.73;;;9.77;;
52786;SDS011;38661;53.152;5.846;2023-09-08T10:06:05;10.45;;;9.52;;
52786;SDS011;38661;53.152;5.846;2023-09-08T10:08:32;11.93;;;10.73;;
52786;SDS011;38661;53.152;5.846;2023-09-08T10:11:04;11.88;;;10.77;;
52786;SDS011;38661;53.152;5.846;2023-09-08T10:13:33;9.52;;;8.52;;
52786;SDS011;38661;53.152;5.846;2023-09-08T10:16:08;13.10;;;9.93;;
52786;SDS011;38661;53.152;5.846;2023-09-08T10:18:49;10.70;;;9.60;;
52786;SDS011;38661;53.152;5.846;2023-09-08T10:21:16;10.73;;;9.30;;
52786;SDS011;38661;53.152;5.846;2023-09-08T10:23:51;11.20;;;9.70;;
52786;SDS011;38661;53.152;5.846;2023-09-08T10:26:25;9.98;;;8.48;;
52786;SDS011;38661;53.152;5.846;2023-09-08T10:28:53;9.73;;;8.25;;
52786;SDS011;38661;53.152;5.846;2023-09-08T10:31:26;10.50;;;9.48;;
52786;SDS011;38661;53.152;5.846;2023-09-08T10:33:56;9.40;;;8.40;;
52786;SDS011;38661;53.152;5.846;2023-09-08T10:36:23;13.18;;;8.52;;
52786;SDS011;38661;53.152;5.846;2023-09-08T10:38:49;10.43;;;8.55;;
52786;SDS011;38661;53.152;5.846;2023-09-08T10:43:46;9.50;;;8.52;;
52786;SDS011;38661;53.152;5.846;2023-09-08T10:46:23;9.95;;;8.30;;
52786;SDS011;38661;53.152;5.846;2023-09-08T10:48:52;10.05;;;7.35;;
52786;SDS011;38661;53.152;5.846;2023-09-08T10:51:19;8.80;;;7.57;;
52786;SDS011;38661;53.152;5.846;2023-09-08T10:53:47;9.35;;;7.93;;
52786;SDS011;38661;53.152;5.846;2023-09-08T10:56:14;10.65;;;7.25;;
52786;SDS011;38661;53.152;5.846;2023-09-08T10:58:41;8.23;;;6.72;;
52786;SDS011;38661;53.152;5.846;2023-09-08T11:01:15;8.15;;;6.65;;
52786;SDS011;38661;53.152;5.846;2023-09-08T11:03:43;7.63;;;6.68;;
52786;SDS011;38661;53.152;5.846;2023-09-08T11:06:11;7.15;;;6.45;;
52786;SDS011;38661;53.152;5.846;2023-09-08T11:08:38;10.45;;;6.68;;
52786;SDS011;38661;53.152;5.846;2023-09-08T11:11:06;10.27;;;6.22;;
52786;SDS011;38661;53.152;5.846;2023-09-08T11:13:32;10.13;;;6.35;;
52786;SDS011;38661;53.152;5.846;2023-09-08T11:15:58;7.05;;;6.30;;
52786;SDS011;38661;53.152;5.846;2023-09-08T11:18:27;7.55;;;6.32;;
52786;SDS011;38661;53.152;5.846;2023-09-08T11:20:54;8.15;;;6.50;;
52786;SDS011;38661;53.152;5.846;2023-09-08T11:23:20;7.72;;;5.78;;
52786;SDS011;38661;53.152;5.846;2023-09-08T11:25:47;7.90;;;6.88;;
52786;SDS011;38661;53.152;5.846;2023-09-08T11:28:14;7.25;;;6.60;;
52786;SDS011;38661;53.152;5.846;2023-09-08T11:30:39;8.70;;;6.55;;
52786;SDS011;38661;53.152;5.846;2023-09-08T11:33:18;9.13;;;6.05;;
52786;SDS011;38661;53.152;5.846;2023-09-08T11:35:51;6.85;;;6.25;;
52786;SDS011;38661;53.152;5.846;2023-09-08T11:38:25;7.43;;;6.70;;
52786;SDS011;38661;53.152;5.846;2023-09-08T11:40:52;8.00;;;6.85;;
52786;SDS011;38661;53.152;5.846;2023-09-08T11:43:22;10.25;;;6.78;;
52786;SDS011;38661;53.152;5.846;2023-09-08T11:45:48;7.47;;;6.13;;
52786;SDS011;38661;53.152;5.846;2023-09-08T11:48:15;8.05;;;6.82;;
52786;SDS011;38661;53.152;5.846;2023-09-08T11:50:41;8.57;;;6.65;;
52786;SDS011;38661;53.152;5.846;2023-09-08T11:53:07;9.07;;;6.30;;
52786;SDS011;38661;53.152;5.846;2023-09-08T11:55:34;6.60;;;5.88;;
52786;SDS011;38661;53.152;5.846;2023-09-08T11:58:01;7.95;;;6.07;;
52786;SDS011;38661;53.152;5.846;2023-09-08T12:00:28;7.10;;;6.47;;
52786;SDS011;38661;53.152;5.846;2023-09-08T12:02:55;9.30;;;7.10;;
52786;SDS011;38661;53.152;5.846;2023-09-08T12:07:51;9.63;;;6.82;;
52786;SDS011;38661;53.152;5.846;2023-09-08T12:10:18;7.32;;;6.03;;
52786;SDS011;38661;53.152;5.846;2023-09-08T12:12:48;9.63;;;6.43;;
52786;SDS011;38661;53.152;5.846;2023-09-08T12:15:30;6.65;;;6.05;;
52786;SDS011;38661;53.152;5.846;2023-09-08T12:18:01;6.43;;;5.75;;
52786;SDS011;38661;53.152;5.846;2023-09-08T12:20:31;6.47;;;5.88;;
52786;SDS011;38661;53.152;5.846;2023-09-08T12:23:01;7.45;;;5.88;;
52786;SDS011;38661;53.152;5.846;2023-09-08T12:25:28;6.93;;;5.63;;
52786;SDS011;38661;53.152;5.846;2023-09-08T12:27:58;5.97;;;5.40;;
52786;SDS011;38661;53.152;5.846;2023-09-08T12:30:25;6.65;;;5.97;;
52786;SDS011;38661;53.152;5.846;2023-09-08T12:32:56;10.15;;;6.25;;
52786;SDS011;38661;53.152;5.846;2023-09-08T12:35:28;7.40;;;6.45;;
52786;SDS011;38661;53.152;5.846;2023-09-08T12:37:58;8.68;;;6.10;;
52786;SDS011;38661;53.152;5.846;2023-09-08T12:40:29;8.43;;;5.60;;
52786;SDS011;38661;53.152;5.846;2023-09-08T12:42:56;6.88;;;6.15;;
52786;SDS011;38661;53.152;5.846;2023-09-08T12:45:23;6.97;;;5.72;;
52786;SDS011;38661;53.152;5.846;2023-09-08T12:47:51;8.10;;;5.85;;
52786;SDS011;38661;53.152;5.846;2023-09-08T12:50:17;7.22;;;6.43;;
52786;SDS011;38661;53.152;5.846;2023-09-08T12:52:43;6.63;;;5.85;;
52786;SDS011;38661;53.152;5.846;2023-09-08T12:55:09;7.93;;;6.20;;
52786;SDS011;38661;53.152;5.846;2023-09-08T12:57:35;6.63;;;6.03;;
52786;SDS011;38661;53.152;5.846;2023-09-08T13:00:02;7.45;;;6.13;;
52786;SDS011;38661;53.152;5.846;2023-09-08T13:02:28;7.65;;;6.25;;
52786;SDS011;38661;53.152;5.846;2023-09-08T13:04:54;9.23;;;6.55;;
52786;SDS011;38661;53.152;5.846;2023-09-08T13:07:20;8.40;;;7.18;;
52786;SDS011;38661;53.152;5.846;2023-09-08T13:09:46;6.57;;;5.97;;
52786;SDS011;38661;53.152;5.846;2023-09-08T13:12:12;9.45;;;6.47;;
52786;SDS011;38661;53.152;5.846;2023-09-08T13:14:39;6.07;;;5.47;;
52786;SDS011;38661;53.152;5.846;2023-09-08T13:17:05;10.07;;;5.80;;
52786;SDS011;38661;53.152;5.846;2023-09-08T13:19:31;6.97;;;5.70;;
52786;SDS011;38661;53.152;5.846;2023-09-08T13:21:58;8.27;;;6.43;;
52786;SDS011;38661;53.152;5.846;2023-09-08T13:24:24;8.25;;;5.45;;
52786;SDS011;38661;53.152;5.846;2023-09-08T13:26:49;6.63;;;6.03;;
52786;SDS011;38661;53.152;5.846;2023-09-08T13:29:15;8.05;;;5.50;;
52786;SDS011;38661;53.152;5.846;2023-09-08T13:31:41;6.28;;;5.68;;
52786;SDS011;38661;53.152;5.846;2023-09-08T13:34:07;6.45;;;5.78;;
52786;SDS011;38661;53.152;5.846;2023-09-08T13:36:33;8.75;;;6.05;;
52786;SDS011;38661;53.152;5.846;2023-09-08T13:38:59;5.78;;;5.28;;
52786;SDS011;38661;53.152;5.846;2023-09-08T13:41:25;8.10;;;5.68;;
52786;SDS011;38661;53.152;5.846;2023-09-08T13:46:34;7.45;;;6.22;;
52786;SDS011;38661;53.152;5.846;2023-09-08T13:48:59;6.60;;;5.90;;
52786;SDS011;38661;53.152;5.846;2023-09-08T13:51:25;6.53;;;5.88;;
52786;SDS011;38661;53.152;5.846;2023-09-08T13:53:51;10.68;;;5.60;;
52786;SDS011;38661;53.152;5.846;2023-09-08T13:56:17;6.68;;;6.10;;
52786;SDS011;38661;53.152;5.846;2023-09-08T13:58:42;6.88;;;6.18;;
52786;SDS011;38661;53.152;5.846;2023-09-08T14:01:10;8.48;;;6.45;;
52786;SDS011;38661;53.152;5.846;2023-09-08T14:03:36;7.00;;;6.30;;
52786;SDS011;38661;53.152;5.846;2023-09-08T14:06:02;7.93;;;6.32;;
52786;SDS011;38661;53.152;5.846;2023-09-08T14:08:28;7.40;;;5.93;;
52786;SDS011;38661;53.152;5.846;2023-09-08T14:10:53;7.82;;;6.90;;
52786;SDS011;38661;53.152;5.846;2023-09-08T14:13:19;8.13;;;6.55;;
52786;SDS011;38661;53.152;5.846;2023-09-08T14:15:45;7.82;;;7.07;;
52786;SDS011;38661;53.152;5.846;2023-09-08T14:18:11;13.10;;;6.95;;
52786;SDS011;38661;53.152;5.846;2023-09-08T14:20:38;8.93;;;6.82;;
52786;SDS011;38661;53.152;5.846;2023-09-08T14:23:05;9.25;;;6.32;;
52786;SDS011;38661;53.152;5.846;2023-09-08T14:25:33;7.10;;;6.47;;
52786;SDS011;38661;53.152;5.846;2023-09-08T14:27:58;7.00;;;6.40;;
52786;SDS011;38661;53.152;5.846;2023-09-08T14:30:24;9.65;;;7.35;;
52786;SDS011;38661;53.152;5.846;2023-09-08T14:32:50;8.77;;;6.90;;
52786;SDS011;38661;53.152;5.846;2023-09-08T14:35:15;7.97;;;6.68;;
52786;SDS011;38661;53.152;5.846;2023-09-08T14:37:41;7.88;;;7.15;;
52786;SDS011;38661;53.152;5.846;2023-09-08T14:40:07;9.57;;;7.90;;